createdAt,value
2023-03-02T00:00:01.422Z,50.15
2023-03-02T00:00:51.476Z,49.06
2023-03-02T00:01:41.524Z,53.02
2023-03-02T00:02:31.615Z,46.57
2023-03-02T00:03:21.655Z,45.62
2023-03-02T00:04:11.827Z,46.55
2023-03-02T00:05:01.718Z,46.58
2023-03-02T00:05:51.804Z,46.67
2023-03-02T00:06:41.834Z,47.52
2023-03-02T00:07:31.887Z,46.15
2023-03-02T00:08:21.973Z,44.65
2023-03-02T00:09:12.004Z,45.21
2023-03-02T00:10:02.040Z,45.35
2023-03-02T00:10:52.079Z,46.27
2023-03-02T00:11:42.365Z,42.38
2023-03-02T00:12:32.455Z,47.26
2023-03-02T00:13:22.521Z,47.43
2023-03-02T00:14:12.566Z,47.81
2023-03-02T00:15:02.615Z,50.20
2023-03-02T00:15:52.756Z,46.80
2023-03-02T00:16:42.723Z,48.96
2023-03-02T00:17:32.795Z,51.05
2023-03-02T00:18:22.848Z,48.23
2023-03-02T00:19:12.883Z,49.61
2023-03-02T00:20:02.951Z,56.85
2023-03-02T00:20:53.011Z,51.32
2023-03-02T00:21:43.197Z,52.45
2023-03-02T00:22:33.103Z,53.99
2023-03-02T00:23:23.169Z,52.20
2023-03-02T00:24:13.206Z,53.55
2023-03-02T00:25:03.299Z,47.95
2023-03-02T00:25:53.337Z,50.35
2023-03-02T00:26:43.365Z,50.51
2023-03-02T00:27:33.462Z,54.82
2023-03-02T00:28:23.519Z,49.74
2023-03-02T00:29:13.569Z,53.24
2023-03-02T00:30:03.646Z,51.44
2023-03-02T00:30:53.714Z,50.78
2023-03-02T00:31:43.764Z,52.40
2023-03-02T00:32:33.802Z,49.65
2023-03-02T00:33:23.838Z,55.89
2023-03-02T00:34:13.865Z,53.36
2023-03-02T00:35:03.899Z,52.49
2023-03-02T00:35:54.034Z,57.28
2023-03-02T00:36:44.338Z,53.96
2023-03-02T00:37:34.121Z,56.88
2023-03-02T00:38:24.274Z,55.72
2023-03-02T00:39:14.318Z,57.70
2023-03-02T00:40:04.349Z,53.43
2023-03-02T00:40:54.424Z,52.22
2023-03-02T00:41:44.460Z,56.15
2023-03-02T00:42:34.512Z,50.25
2023-03-02T00:43:24.573Z,54.34
2023-03-02T00:44:14.627Z,53.02
2023-03-02T00:45:04.743Z,55.84
2023-03-02T00:45:54.795Z,50.00
2023-03-02T00:46:44.921Z,50.57
2023-03-02T00:47:35.153Z,54.78
2023-03-02T00:48:25.198Z,53.58
2023-03-02T00:49:15.252Z,53.07
2023-03-02T00:50:05.283Z,56.08
2023-03-02T00:50:55.340Z,57.36
2023-03-02T00:51:45.373Z,53.57
2023-03-02T00:52:35.470Z,53.48
2023-03-02T00:53:25.554Z,57.18
2023-03-02T00:54:15.640Z,57.12
2023-03-02T00:55:05.675Z,54.88
2023-03-02T00:55:55.724Z,54.00
2023-03-02T00:56:45.754Z,53.69
2023-03-02T00:57:35.806Z,54.10
2023-03-02T00:58:25.883Z,56.16
2023-03-02T00:59:15.911Z,56.40
2023-03-02T01:00:05.962Z,53.72
2023-03-02T01:00:56.061Z,57.97
2023-03-02T01:01:46.104Z,58.99
2023-03-02T01:02:36.262Z,59.41
2023-03-02T01:03:26.267Z,60.11
2023-03-02T01:04:16.288Z,54.81
2023-03-02T01:05:06.328Z,49.74
2023-03-02T01:05:56.377Z,51.13
2023-03-02T01:06:46.428Z,55.06
2023-03-02T01:07:36.568Z,53.51
2023-03-02T01:08:26.613Z,48.67
2023-03-02T01:09:16.672Z,51.59
2023-03-02T01:10:06.718Z,55.37
2023-03-02T01:10:56.751Z,50.95
2023-03-02T01:11:46.794Z,54.05
2023-03-02T01:12:36.839Z,51.84
2023-03-02T01:13:26.906Z,56.85
2023-03-02T01:14:17.009Z,52.74
2023-03-02T01:15:07.015Z,53.07
2023-03-02T01:15:57.108Z,53.82
2023-03-02T01:16:47.101Z,56.19
2023-03-02T01:17:37.143Z,54.45
2023-03-02T01:18:27.198Z,52.84
2023-03-02T01:19:17.251Z,55.51
2023-03-02T01:20:07.277Z,55.76
2023-03-02T01:20:57.374Z,55.91
2023-03-02T01:21:47.405Z,53.81
2023-03-02T01:22:37.460Z,54.29
2023-03-02T01:23:27.497Z,55.57
2023-03-02T01:24:17.537Z,56.27
2023-03-02T01:25:07.583Z,61.07
2023-03-02T01:25:57.651Z,57.18
2023-03-02T01:26:47.679Z,56.40
2023-03-02T01:27:37.726Z,53.18
2023-03-02T01:28:27.785Z,55.39
2023-03-02T01:29:17.832Z,52.47
2023-03-02T01:30:07.882Z,51.38
2023-03-02T01:30:57.927Z,52.78
2023-03-02T01:31:48.125Z,54.40
2023-03-02T01:32:38.134Z,56.24
2023-03-02T01:33:28.172Z,57.54
2023-03-02T01:34:18.197Z,53.60
2023-03-02T01:35:08.229Z,54.78
2023-03-02T01:35:58.408Z,58.18
2023-03-02T01:36:48.364Z,56.25
2023-03-02T01:37:38.446Z,52.95
2023-03-02T01:38:28.652Z,53.80
2023-03-02T01:39:18.600Z,58.49
2023-03-02T01:40:08.671Z,51.64
2023-03-02T01:40:58.764Z,55.71
2023-03-02T01:41:48.755Z,49.21
2023-03-02T01:42:38.805Z,56.13
2023-03-02T01:43:29.124Z,52.01
2023-03-02T01:44:19.168Z,53.52
2023-03-02T01:45:09.210Z,49.42
2023-03-02T01:45:59.342Z,54.23
2023-03-02T01:46:49.292Z,50.01
2023-03-02T01:47:39.389Z,50.05
2023-03-02T01:48:29.460Z,51.49
2023-03-02T01:49:19.498Z,51.95
2023-03-02T01:50:09.585Z,55.41
2023-03-02T01:50:59.626Z,50.68
2023-03-02T01:51:49.694Z,51.29
2023-03-02T01:52:39.747Z,53.07
2023-03-02T01:53:29.797Z,55.42
2023-03-02T01:54:19.842Z,53.84
2023-03-02T01:55:09.867Z,51.83
2023-03-02T01:55:59.940Z,49.87
2023-03-02T01:56:49.999Z,54.10
2023-03-02T01:57:40.064Z,51.71
2023-03-02T01:58:30.132Z,52.82
2023-03-02T01:59:20.174Z,51.40
2023-03-02T02:00:10.209Z,54.59
2023-03-02T02:01:00.331Z,53.60
2023-03-02T02:01:50.297Z,50.02
2023-03-02T02:02:40.341Z,54.75
2023-03-02T02:03:30.437Z,53.49
2023-03-02T02:04:20.588Z,54.39
2023-03-02T02:05:10.524Z,54.55
2023-03-02T02:06:00.604Z,58.79
2023-03-02T02:06:50.636Z,56.08
2023-03-02T02:07:40.678Z,53.36
2023-03-02T02:08:30.737Z,55.54
2023-03-02T02:09:20.759Z,56.76
2023-03-02T02:10:10.840Z,55.51
2023-03-02T02:11:00.890Z,53.92
2023-03-02T02:11:50.926Z,50.55
2023-03-02T02:12:41.002Z,54.50
2023-03-02T02:13:31.018Z,52.39
2023-03-02T02:14:21.062Z,50.64
2023-03-02T02:15:11.103Z,52.91
2023-03-02T02:16:01.147Z,56.28
2023-03-02T02:16:51.265Z,56.93
2023-03-02T02:17:41.316Z,59.63
2023-03-02T02:18:31.396Z,55.93
2023-03-02T02:19:21.425Z,55.15
2023-03-02T02:20:11.470Z,55.30
2023-03-02T02:21:01.512Z,53.66
2023-03-02T02:21:51.549Z,55.36
2023-03-02T02:22:41.633Z,50.22
2023-03-02T02:23:31.712Z,50.40
2023-03-02T02:24:21.782Z,53.30
2023-03-02T02:25:11.782Z,51.90
2023-03-02T02:26:01.829Z,53.28
2023-03-02T02:26:51.875Z,55.66
2023-03-02T02:27:41.908Z,53.12
2023-03-02T02:28:31.984Z,53.04
2023-03-02T02:29:22.022Z,53.56
2023-03-02T02:30:12.101Z,53.87
2023-03-02T02:31:02.139Z,55.28
2023-03-02T02:31:52.259Z,54.38
2023-03-02T02:32:42.274Z,52.12
2023-03-02T02:33:32.319Z,54.92
2023-03-02T02:34:22.366Z,53.24
2023-03-02T02:35:12.410Z,53.72
2023-03-02T02:36:02.533Z,58.99
2023-03-02T02:36:52.528Z,53.47
2023-03-02T02:37:42.614Z,56.06
2023-03-02T02:38:32.678Z,53.94
2023-03-02T02:39:22.730Z,55.76
2023-03-02T02:40:12.772Z,58.16
2023-03-02T02:41:02.827Z,57.12
2023-03-02T02:41:52.888Z,60.11
2023-03-02T02:42:42.928Z,57.35
2023-03-02T02:43:33.027Z,54.84
2023-03-02T02:44:23.084Z,56.36
2023-03-02T02:45:13.093Z,55.99
2023-03-02T02:46:03.283Z,59.80
2023-03-02T02:46:53.234Z,54.14
2023-03-02T02:47:43.286Z,58.68
2023-03-02T02:48:33.359Z,58.25
2023-03-02T02:49:23.416Z,55.01
2023-03-02T02:50:13.594Z,57.68
2023-03-02T02:51:03.652Z,57.12
2023-03-02T02:51:53.687Z,56.83
2023-03-02T02:52:43.741Z,59.97
2023-03-02T02:53:33.810Z,58.03
2023-03-02T02:54:23.835Z,60.32
2023-03-02T02:55:13.881Z,61.47
2023-03-02T02:56:03.931Z,61.05
2023-03-02T02:56:54.001Z,57.69
2023-03-02T02:57:44.085Z,53.42
2023-03-02T02:58:34.194Z,56.70
2023-03-02T02:59:24.207Z,53.83
2023-03-02T03:00:14.284Z,55.52
2023-03-02T03:01:04.356Z,56.71
2023-03-02T03:01:54.324Z,52.90
2023-03-02T03:02:44.381Z,56.61
2023-03-02T03:03:34.500Z,56.31
2023-03-02T03:04:24.645Z,57.13
2023-03-02T03:05:14.558Z,54.77
2023-03-02T03:06:04.632Z,57.40
2023-03-02T03:06:54.677Z,55.59
2023-03-02T03:07:44.723Z,56.78
2023-03-02T03:08:34.781Z,55.38
2023-03-02T03:09:24.938Z,51.60
2023-03-02T03:10:14.921Z,57.77
2023-03-02T03:11:04.981Z,59.72
2023-03-02T03:11:55.025Z,56.84
2023-03-02T03:12:45.078Z,54.84
2023-03-02T03:13:35.141Z,58.76
2023-03-02T03:14:25.197Z,56.95
2023-03-02T03:15:15.231Z,58.59
2023-03-02T03:16:05.305Z,61.28
2023-03-02T03:16:55.466Z,59.11
2023-03-02T03:17:45.410Z,59.31
2023-03-02T03:18:35.460Z,58.15
2023-03-02T03:19:25.514Z,58.24
2023-03-02T03:20:15.548Z,61.01
2023-03-02T03:21:05.628Z,60.03
2023-03-02T03:21:55.664Z,64.08
2023-03-02T03:22:45.693Z,58.94
2023-03-02T03:23:35.767Z,55.33
2023-03-02T03:24:25.798Z,57.83
2023-03-02T03:25:15.822Z,54.83
2023-03-02T03:26:05.918Z,56.26
2023-03-02T03:26:55.955Z,57.29
2023-03-02T03:27:46.005Z,57.84
2023-03-02T03:28:36.050Z,58.76
2023-03-02T03:29:26.089Z,55.88
2023-03-02T03:30:16.184Z,56.30
2023-03-02T03:31:06.264Z,58.54
2023-03-02T03:31:56.332Z,59.45
2023-03-02T03:32:46.343Z,61.04
2023-03-02T03:33:36.394Z,61.09
2023-03-02T03:34:26.449Z,58.03
2023-03-02T03:35:16.464Z,57.00
2023-03-02T03:36:06.520Z,61.49
2023-03-02T03:36:56.655Z,60.01
2023-03-02T03:37:46.697Z,60.21
2023-03-02T03:38:36.762Z,61.48
2023-03-02T03:39:26.808Z,61.11
2023-03-02T03:40:16.855Z,61.15
2023-03-02T03:41:06.892Z,61.15
2023-03-02T03:41:56.936Z,64.89
2023-03-02T03:42:46.972Z,62.06
2023-03-02T03:43:37.081Z,62.58
2023-03-02T03:44:27.128Z,60.36
2023-03-02T03:45:17.179Z,56.74
2023-03-02T03:46:07.275Z,61.09
2023-03-02T03:46:57.234Z,60.61
2023-03-02T03:47:47.348Z,58.98
2023-03-02T03:48:37.378Z,60.80
2023-03-02T03:49:27.430Z,57.61
2023-03-02T03:50:17.514Z,59.30
2023-03-02T03:51:07.555Z,56.74
2023-03-02T03:51:57.610Z,61.21
2023-03-02T03:52:47.646Z,57.48
2023-03-02T03:53:37.703Z,61.72
2023-03-02T03:54:27.755Z,62.67
2023-03-02T03:55:17.805Z,59.12
2023-03-02T03:56:07.840Z,64.37
2023-03-02T03:56:57.917Z,61.47
2023-03-02T03:57:47.959Z,62.36
2023-03-02T03:58:38.072Z,63.99
2023-03-02T03:59:28.074Z,61.35
2023-03-02T04:00:18.143Z,65.03
2023-03-02T04:01:08.198Z,65.19
2023-03-02T04:01:58.274Z,64.16
2023-03-02T04:02:48.323Z,61.23
2023-03-02T04:03:38.408Z,58.54
2023-03-02T04:04:28.422Z,58.58
2023-03-02T04:05:18.450Z,54.93
2023-03-02T04:06:08.499Z,58.10
2023-03-02T04:06:58.546Z,59.19
2023-03-02T04:07:48.620Z,61.18
2023-03-02T04:08:38.720Z,64.08
2023-03-02T04:09:28.768Z,63.94
2023-03-02T04:10:18.834Z,60.70
2023-03-02T04:11:08.907Z,58.75
2023-03-02T04:11:58.940Z,65.15
2023-03-02T04:12:49.026Z,58.05
2023-03-02T04:13:39.032Z,60.87
2023-03-02T04:14:29.085Z,64.16
2023-03-02T04:15:19.125Z,66.38
2023-03-02T04:16:09.211Z,66.17
2023-03-02T04:16:59.256Z,67.73
2023-03-02T04:17:49.291Z,60.66
2023-03-02T04:18:39.333Z,70.78
2023-03-02T04:19:29.410Z,69.44
2023-03-02T04:20:19.428Z,65.16
2023-03-02T04:21:09.510Z,64.39
2023-03-02T04:21:59.559Z,62.49
2023-03-02T04:22:49.600Z,60.39
2023-03-02T04:23:39.656Z,55.08
2023-03-02T04:24:29.706Z,55.10
2023-03-02T04:25:19.718Z,55.39
2023-03-02T04:26:09.764Z,59.86
2023-03-02T04:26:59.813Z,55.20
2023-03-02T04:27:49.863Z,55.54
2023-03-02T04:28:39.905Z,50.27
2023-03-02T04:29:29.968Z,54.49
2023-03-02T04:30:20.023Z,56.54
2023-03-02T04:31:10.208Z,56.82
2023-03-02T04:32:00.294Z,61.29
2023-03-02T04:32:50.193Z,61.75
2023-03-02T04:33:40.307Z,60.65
2023-03-02T04:34:30.336Z,60.57
2023-03-02T04:35:20.427Z,59.57
2023-03-02T04:36:10.442Z,57.71
2023-03-02T04:37:00.465Z,52.20
2023-03-02T04:37:50.570Z,54.67
2023-03-02T04:38:40.635Z,56.38
2023-03-02T04:39:30.655Z,54.84
2023-03-02T04:40:20.703Z,58.99
2023-03-02T04:41:10.738Z,57.22
2023-03-02T04:42:00.776Z,63.12
2023-03-02T04:42:50.860Z,64.79
2023-03-02T04:43:40.967Z,68.29
2023-03-02T04:44:31.011Z,62.37
2023-03-02T04:45:21.055Z,60.17
2023-03-02T04:46:11.130Z,58.68
2023-03-02T04:47:01.207Z,63.42
2023-03-02T04:47:51.204Z,64.53
2023-03-02T04:48:41.281Z,67.71
2023-03-02T04:49:31.308Z,67.43
2023-03-02T04:50:21.382Z,64.27
2023-03-02T04:51:11.487Z,61.73
2023-03-02T04:52:01.529Z,64.99
2023-03-02T04:52:51.527Z,64.36
2023-03-02T04:53:41.623Z,65.95
2023-03-02T04:54:31.679Z,65.69
2023-03-02T04:55:21.727Z,58.04
2023-03-02T04:56:11.765Z,62.79
2023-03-02T04:57:01.808Z,60.58
2023-03-02T04:57:51.850Z,56.84
2023-03-02T04:58:41.914Z,56.75
2023-03-02T04:59:31.928Z,58.55
2023-03-02T05:00:21.961Z,58.08
2023-03-02T05:01:12.047Z,58.97
2023-03-02T05:02:02.152Z,61.74
2023-03-02T05:02:52.136Z,58.29
2023-03-02T05:03:42.196Z,61.33
2023-03-02T05:04:32.273Z,64.89
2023-03-02T05:05:22.339Z,66.26
2023-03-02T05:06:12.338Z,66.30
2023-03-02T05:07:02.507Z,60.93
2023-03-02T05:07:52.452Z,65.86
2023-03-02T05:08:42.517Z,58.80
2023-03-02T05:09:32.561Z,60.44
2023-03-02T05:10:22.653Z,61.90
2023-03-02T05:11:12.694Z,58.12
2023-03-02T05:12:02.747Z,64.19
2023-03-02T05:12:52.808Z,57.72
2023-03-02T05:13:42.867Z,61.73
2023-03-02T05:14:32.904Z,57.10
2023-03-02T05:15:22.947Z,59.58
2023-03-02T05:16:13.068Z,59.99
2023-03-02T05:17:03.057Z,62.77
2023-03-02T05:17:53.143Z,64.92
2023-03-02T05:18:43.193Z,62.01
2023-03-02T05:19:33.211Z,64.12
2023-03-02T05:20:23.246Z,59.82
2023-03-02T05:21:13.336Z,62.20
2023-03-02T05:22:03.370Z,61.88
2023-03-02T05:22:53.442Z,59.12
2023-03-02T05:23:43.491Z,61.28
2023-03-02T05:24:33.512Z,62.24
2023-03-02T05:25:23.557Z,59.46
2023-03-02T05:26:13.630Z,59.78
2023-03-02T05:27:03.653Z,58.31
2023-03-02T05:27:53.694Z,58.99
2023-03-02T05:28:43.754Z,56.46
2023-03-02T05:29:33.807Z,57.97
2023-03-02T05:30:23.890Z,53.71
2023-03-02T05:31:14.049Z,53.63
2023-03-02T05:32:04.041Z,77.36
2023-03-02T05:32:54.048Z,96.14
2023-03-02T05:33:44.088Z,95.70
2023-03-02T05:34:34.122Z,91.32
2023-03-02T05:35:24.239Z,80.22
2023-03-02T05:36:14.236Z,78.88
2023-03-02T05:37:04.284Z,81.57
2023-03-02T05:37:54.322Z,75.13
2023-03-02T05:38:44.401Z,74.93
2023-03-02T05:39:34.414Z,71.35
2023-03-02T05:40:24.450Z,66.31
2023-03-02T05:41:14.543Z,64.41
2023-03-02T05:42:04.571Z,68.52
2023-03-02T05:42:54.616Z,71.83
2023-03-02T05:43:44.719Z,71.79
2023-03-02T05:44:34.758Z,72.21
2023-03-02T05:45:24.796Z,75.28
2023-03-02T05:46:14.888Z,69.11
2023-03-02T05:47:04.964Z,67.96
2023-03-02T05:47:54.967Z,69.22
2023-03-02T05:48:45.002Z,74.25
2023-03-02T05:49:35.047Z,68.27
2023-03-02T05:50:25.137Z,69.99
2023-03-02T05:51:15.188Z,70.46
2023-03-02T05:52:05.226Z,68.50
2023-03-02T05:52:55.308Z,69.33
2023-03-02T05:53:45.383Z,67.71
2023-03-02T05:54:35.459Z,60.44
2023-03-02T05:55:25.469Z,58.94
2023-03-02T05:56:15.543Z,62.35
2023-03-02T05:57:05.577Z,63.63
2023-03-02T05:57:55.672Z,64.01
2023-03-02T05:58:45.716Z,63.95
2023-03-02T05:59:35.762Z,58.95
2023-03-02T06:00:25.814Z,59.89
2023-03-02T06:01:15.872Z,57.05
2023-03-02T06:02:06.033Z,59.21
2023-03-02T06:02:56.157Z,58.07
2023-03-02T06:03:46.088Z,62.21
2023-03-02T06:04:36.147Z,61.24
2023-03-02T06:05:26.216Z,67.32
2023-03-02T06:06:16.282Z,70.66
2023-03-02T06:07:06.309Z,69.56
2023-03-02T06:07:56.394Z,71.45
2023-03-02T06:08:46.470Z,65.50
2023-03-02T06:09:36.497Z,69.01
2023-03-02T06:10:26.591Z,69.35
2023-03-02T06:11:16.590Z,71.46
2023-03-02T06:12:06.618Z,66.47
2023-03-02T06:12:56.697Z,66.46
2023-03-02T06:13:46.746Z,64.26
2023-03-02T06:14:36.802Z,61.95
2023-03-02T06:15:26.822Z,56.87
2023-03-02T06:16:16.941Z,57.68
2023-03-02T06:17:06.944Z,57.92
2023-03-02T06:17:57.044Z,61.83
2023-03-02T06:18:47.103Z,60.38
2023-03-02T06:19:37.149Z,63.87
2023-03-02T06:20:27.188Z,63.97
2023-03-02T06:21:17.242Z,62.53
2023-03-02T06:22:07.279Z,65.04
2023-03-02T06:22:57.358Z,66.53
2023-03-02T06:23:47.446Z,67.52
2023-03-02T06:24:37.487Z,66.69
2023-03-02T06:25:27.541Z,68.50
2023-03-02T06:26:17.687Z,65.83
2023-03-02T06:27:07.632Z,66.67
2023-03-02T06:27:57.697Z,67.77
2023-03-02T06:28:52.662Z,66.92
2023-03-02T06:29:38.765Z,66.97
2023-03-02T06:30:27.818Z,66.94
2023-03-02T06:31:17.943Z,67.04
2023-03-02T06:32:08.118Z,67.30
2023-03-02T06:32:58.002Z,68.23
2023-03-02T06:33:48.114Z,68.00
2023-03-02T06:34:38.147Z,64.97
2023-03-02T06:35:28.419Z,63.49
2023-03-02T06:36:18.497Z,66.89
2023-03-02T06:37:08.450Z,63.55
2023-03-02T06:37:58.513Z,66.42
2023-03-02T06:38:48.563Z,67.39
2023-03-02T06:39:38.624Z,65.64
2023-03-02T06:40:28.677Z,66.36
2023-03-02T06:41:18.728Z,63.36
2023-03-02T06:42:08.844Z,64.04
2023-03-02T06:42:58.880Z,65.62
2023-03-02T06:43:48.911Z,60.89
2023-03-02T06:44:38.962Z,60.38
2023-03-02T06:45:28.989Z,66.73
2023-03-02T06:46:19.114Z,65.42
2023-03-02T06:47:09.095Z,66.23
2023-03-02T06:47:59.159Z,69.41
2023-03-02T06:48:49.231Z,68.67
2023-03-02T06:49:39.275Z,68.75
2023-03-02T06:50:29.342Z,70.38
2023-03-02T06:51:19.358Z,70.37
2023-03-02T06:52:09.412Z,69.87
2023-03-02T06:52:59.446Z,73.20
2023-03-02T06:53:49.513Z,74.97
2023-03-02T06:54:39.574Z,76.10
2023-03-02T06:55:29.676Z,77.73
2023-03-02T06:56:19.719Z,80.61
2023-03-02T06:57:09.784Z,74.50
2023-03-02T06:57:59.867Z,76.66
2023-03-02T06:58:49.887Z,72.55
2023-03-02T06:59:39.942Z,75.01
2023-03-02T07:00:29.977Z,78.79
2023-03-02T07:01:20.121Z,78.28
2023-03-02T07:02:10.117Z,76.80
2023-03-02T07:03:00.184Z,73.03
2023-03-02T07:03:50.472Z,74.23
2023-03-02T07:04:40.300Z,69.88
2023-03-02T07:05:30.343Z,72.50
2023-03-02T07:06:20.395Z,74.94
2023-03-02T07:07:10.482Z,72.57
2023-03-02T07:08:00.532Z,71.13
2023-03-02T07:08:50.635Z,72.33
2023-03-02T07:09:40.692Z,73.88
2023-03-02T07:10:30.795Z,73.51
2023-03-02T07:11:20.804Z,72.05
2023-03-02T07:12:10.850Z,75.07
2023-03-02T07:13:00.921Z,76.34
2023-03-02T07:13:51.004Z,78.66
2023-03-02T07:14:41.029Z,78.90
2023-03-02T07:15:31.123Z,76.75
2023-03-02T07:16:21.217Z,76.31
2023-03-02T07:17:11.208Z,75.44
2023-03-02T07:18:01.300Z,74.41
2023-03-02T07:18:51.366Z,74.63
2023-03-02T07:19:41.408Z,76.84
2023-03-02T07:20:31.446Z,73.18
2023-03-02T07:21:21.522Z,73.40
2023-03-02T07:22:11.517Z,70.79
2023-03-02T07:23:01.605Z,72.94
2023-03-02T07:23:51.654Z,70.56
2023-03-02T07:24:43.485Z,73.20
2023-03-02T07:25:31.746Z,67.74
2023-03-02T07:26:21.848Z,72.45
2023-03-02T07:27:11.855Z,73.70
2023-03-02T07:28:01.919Z,72.95
2023-03-02T07:28:52.028Z,70.57
2023-03-02T07:29:42.150Z,69.98
2023-03-02T07:30:32.180Z,75.53
2023-03-02T07:31:22.213Z,71.76
2023-03-02T07:32:12.717Z,73.06
2023-03-02T07:33:02.307Z,74.20
2023-03-02T07:33:52.377Z,70.63
2023-03-02T07:34:42.432Z,72.96
2023-03-02T07:35:32.476Z,71.92
2023-03-02T07:36:22.530Z,87.19
2023-03-02T07:37:12.567Z,94.38
2023-03-02T07:38:02.626Z,93.71
2023-03-02T07:38:52.666Z,88.67
2023-03-02T07:39:42.710Z,90.87
2023-03-02T07:40:32.756Z,86.39
2023-03-02T07:41:22.811Z,79.43
2023-03-02T07:42:12.871Z,82.87
2023-03-02T07:43:02.963Z,78.02
2023-03-02T07:43:53.010Z,79.99
2023-03-02T07:44:43.038Z,75.52
2023-03-02T07:45:33.125Z,77.56
2023-03-02T07:46:23.228Z,79.41
2023-03-02T07:47:13.183Z,77.75
2023-03-02T07:48:03.230Z,79.09
2023-03-02T07:48:53.344Z,78.72
2023-03-02T07:49:43.373Z,79.61
2023-03-02T07:50:33.425Z,77.46
2023-03-02T07:51:23.499Z,75.73
2023-03-02T07:52:13.542Z,77.62
2023-03-02T07:53:03.574Z,72.20
2023-03-02T07:53:53.647Z,76.37
2023-03-02T07:54:43.705Z,72.48
2023-03-02T07:55:33.807Z,76.36
2023-03-02T07:56:23.859Z,77.13
2023-03-02T07:57:13.893Z,75.89
2023-03-02T07:58:03.949Z,74.90
2023-03-02T07:58:54.008Z,74.01
2023-03-02T07:59:44.065Z,78.10
2023-03-02T08:00:34.125Z,76.53
2023-03-02T08:01:24.218Z,77.21
2023-03-02T08:02:14.305Z,74.75
2023-03-02T08:03:04.394Z,74.41
2023-03-02T08:03:54.417Z,74.84
2023-03-02T08:04:44.441Z,74.89
2023-03-02T08:05:34.484Z,75.39
2023-03-02T08:06:24.540Z,75.95
2023-03-02T08:07:14.584Z,71.80
2023-03-02T08:08:04.641Z,69.85
2023-03-02T08:08:54.749Z,70.14
2023-03-02T08:09:44.789Z,68.63
2023-03-02T08:10:34.843Z,68.34
2023-03-02T08:11:24.882Z,67.68
2023-03-02T08:12:14.930Z,67.01
2023-03-02T08:13:05.000Z,67.63
2023-03-02T08:13:55.068Z,62.32
2023-03-02T08:14:45.113Z,64.22
2023-03-02T08:15:35.207Z,69.15
2023-03-02T08:16:25.372Z,70.43
2023-03-02T08:17:15.412Z,74.19
2023-03-02T08:18:05.379Z,76.94
2023-03-02T08:18:57.399Z,71.24
2023-03-02T08:19:45.502Z,67.76
2023-03-02T08:20:35.549Z,71.35
2023-03-02T08:21:25.603Z,71.84
2023-03-02T08:22:15.678Z,73.22
2023-03-02T08:23:05.773Z,75.25
2023-03-02T08:23:55.903Z,76.45
2023-03-02T08:24:45.900Z,73.29
2023-03-02T08:25:35.961Z,71.27
2023-03-02T08:26:26.013Z,71.35
2023-03-02T08:27:16.275Z,71.39
2023-03-02T08:28:06.329Z,67.23
2023-03-02T08:28:56.403Z,68.66
2023-03-02T08:29:46.422Z,66.67
2023-03-02T08:30:36.462Z,69.80
2023-03-02T08:31:26.599Z,71.43
2023-03-02T08:32:16.618Z,67.17
2023-03-02T08:33:07.310Z,72.06
2023-03-02T08:33:56.682Z,69.07
2023-03-02T08:34:46.732Z,67.80
2023-03-02T08:35:36.831Z,69.12
2023-03-02T08:36:26.828Z,63.37
2023-03-02T08:37:16.867Z,66.80
2023-03-02T08:38:06.920Z,69.31
2023-03-02T08:38:56.972Z,71.42
2023-03-02T08:39:47.025Z,68.08
2023-03-02T08:40:37.106Z,67.60
2023-03-02T08:41:27.157Z,67.53
2023-03-02T08:42:17.232Z,63.97
2023-03-02T08:43:08.185Z,64.96
2023-03-02T08:43:57.337Z,67.17
2023-03-02T08:44:47.422Z,68.74
2023-03-02T08:45:37.474Z,68.47
2023-03-02T08:46:27.463Z,74.12
2023-03-02T08:47:17.515Z,82.87
2023-03-02T08:48:07.569Z,84.45
2023-03-02T08:48:57.830Z,81.30
2023-03-02T08:49:48.380Z,71.59
2023-03-02T08:50:37.918Z,73.52
2023-03-02T08:51:27.988Z,71.45
2023-03-02T08:52:18.019Z,76.24
2023-03-02T08:53:08.047Z,71.37
2023-03-02T08:53:58.121Z,76.37
2023-03-02T08:54:48.198Z,80.26
2023-03-02T08:55:38.264Z,80.54
2023-03-02T08:56:28.286Z,79.56
2023-03-02T08:57:19.754Z,75.33
2023-03-02T08:58:08.393Z,106.92
2023-03-02T08:58:58.457Z,101.15
2023-03-02T08:59:48.520Z,97.97
2023-03-02T09:00:38.508Z,93.39
2023-03-02T09:01:28.633Z,90.76
2023-03-02T09:02:18.651Z,86.65
2023-03-02T09:03:08.701Z,90.32
2023-03-02T09:03:58.967Z,88.42
2023-03-02T09:04:49.125Z,88.52
2023-03-02T09:05:39.075Z,89.77
2023-03-02T09:06:29.152Z,81.71
2023-03-02T09:07:19.198Z,79.69
2023-03-02T09:08:09.243Z,77.46
2023-03-02T09:08:59.295Z,78.77
2023-03-02T09:09:49.327Z,73.12
2023-03-02T09:10:39.421Z,71.46
2023-03-02T09:11:29.493Z,68.14
2023-03-02T09:12:19.525Z,67.94
2023-03-02T09:13:09.562Z,70.75
2023-03-02T09:13:59.644Z,73.49
2023-03-02T09:14:49.665Z,67.41
2023-03-02T09:15:39.703Z,70.95
2023-03-02T09:16:29.886Z,71.06
2023-03-02T09:17:19.855Z,67.97
2023-03-02T09:18:09.941Z,67.44
2023-03-02T09:18:59.997Z,66.74
2023-03-02T09:19:50.305Z,67.53
2023-03-02T09:20:40.356Z,67.44
2023-03-02T09:21:30.541Z,69.69
2023-03-02T09:22:20.451Z,67.89
2023-03-02T09:23:10.502Z,68.45
2023-03-02T09:24:00.547Z,67.01
2023-03-02T09:24:50.589Z,68.13
2023-03-02T09:25:40.629Z,69.96
2023-03-02T09:26:30.728Z,67.33
2023-03-02T09:27:20.816Z,67.37
2023-03-02T09:28:10.849Z,70.76
2023-03-02T09:29:00.926Z,74.18
2023-03-02T09:29:50.944Z,68.40
2023-03-02T09:30:40.993Z,69.88
2023-03-02T09:31:31.271Z,71.79
2023-03-02T09:32:21.212Z,73.26
2023-03-02T09:33:11.255Z,71.93
2023-03-02T09:34:01.278Z,71.14
2023-03-02T09:34:51.325Z,68.86
2023-03-02T09:35:41.644Z,68.64
2023-03-02T09:36:31.791Z,67.28
2023-03-02T09:37:21.791Z,67.92
2023-03-02T09:38:12.132Z,68.95
2023-03-02T09:39:02.143Z,66.40
2023-03-02T09:39:52.210Z,62.72
2023-03-02T09:40:42.211Z,66.14
2023-03-02T09:41:32.575Z,58.25
2023-03-02T09:42:25.388Z,61.03
2023-03-02T09:43:12.609Z,61.14
2023-03-02T09:44:02.703Z,61.72
2023-03-02T09:44:52.724Z,62.27
2023-03-02T09:45:43.170Z,64.98
2023-03-02T09:46:33.099Z,67.50
2023-03-02T09:47:34.864Z,72.22
2023-03-02T09:48:14.187Z,61.22
2023-03-02T09:49:04.168Z,62.00
2023-03-02T09:49:53.277Z,63.80
2023-03-02T09:50:43.352Z,62.76
2023-03-02T09:51:33.749Z,62.56
2023-03-02T09:52:23.473Z,62.61
2023-03-02T09:53:13.530Z,64.10
2023-03-02T09:54:03.744Z,65.13
2023-03-02T09:54:53.754Z,61.96
2023-03-02T09:55:43.825Z,63.89
2023-03-02T09:56:34.417Z,62.30
2023-03-02T09:57:24.186Z,62.05
2023-03-02T09:58:14.233Z,58.77
2023-03-02T09:59:04.295Z,63.12
2023-03-02T09:59:54.336Z,63.39
2023-03-02T10:00:44.369Z,66.17
2023-03-02T10:01:34.460Z,67.27
2023-03-02T10:02:24.517Z,67.17
2023-03-02T10:03:17.329Z,62.01
2023-03-02T10:04:04.817Z,68.84
2023-03-02T10:04:54.787Z,61.23
2023-03-02T10:05:44.711Z,63.39
2023-03-02T10:06:34.932Z,63.47
2023-03-02T10:07:24.903Z,58.36
2023-03-02T10:08:15.008Z,64.36
2023-03-02T10:09:05.053Z,66.02
2023-03-02T10:09:55.095Z,64.18
2023-03-02T10:10:45.142Z,67.14
2023-03-02T10:11:35.177Z,64.76
2023-03-02T10:12:25.256Z,68.25
2023-03-02T10:13:15.335Z,65.72
2023-03-02T10:14:05.386Z,64.42
2023-03-02T10:14:55.425Z,63.51
2023-03-02T10:15:45.559Z,59.55
2023-03-02T10:16:35.938Z,60.11
2023-03-02T10:17:25.564Z,64.38
2023-03-02T10:18:15.617Z,60.80
2023-03-02T10:19:05.827Z,63.57
2023-03-02T10:19:55.706Z,58.49
2023-03-02T10:20:45.758Z,58.35
2023-03-02T10:21:35.853Z,59.61
2023-03-02T10:22:25.876Z,61.07
2023-03-02T10:23:15.907Z,63.69
2023-03-02T10:24:06.017Z,66.83
2023-03-02T10:24:56.017Z,61.06
2023-03-02T10:25:46.056Z,62.69
2023-03-02T10:26:36.118Z,61.49
2023-03-02T10:27:26.329Z,58.72
2023-03-02T10:28:16.187Z,58.75
2023-03-02T10:29:06.255Z,59.01
2023-03-02T10:29:56.278Z,58.33
2023-03-02T10:30:46.386Z,54.39
2023-03-02T10:31:36.375Z,56.96
2023-03-02T10:32:26.455Z,58.75
2023-03-02T10:33:16.482Z,56.24
2023-03-02T10:34:06.565Z,58.87
2023-03-02T10:34:56.581Z,57.47
2023-03-02T10:35:46.693Z,58.97
2023-03-02T10:36:37.043Z,60.21
2023-03-02T10:37:26.798Z,61.98
2023-03-02T10:38:16.852Z,65.95
2023-03-02T10:39:06.928Z,63.79
2023-03-02T10:39:57.006Z,61.27
2023-03-02T10:40:46.966Z,57.07
2023-03-02T10:41:37.813Z,63.88
2023-03-02T10:42:27.127Z,58.64
2023-03-02T10:43:17.140Z,60.03
2023-03-02T10:44:07.200Z,62.93